sensor_id;sensor_type;location;lat;lon;timestamp;P1;durP1;ratioP1;P2;durP2;ratioP2
50789;SDS011;37287;47.554;7.844;2023-08-06T00:02:24;1.42;;;0.90;;
50789;SDS011;37287;47.554;7.844;2023-08-06T00:05:15;1.20;;;1.10;;
50789;SDS011;37287;47.554;7.844;2023-08-06T00:08:11;0.68;;;0.68;;
50789;SDS011;37287;47.554;7.844;2023-08-06T00:10:40;1.67;;;0.90;;
50789;SDS011;37287;47.554;7.844;2023-08-06T00:13:07;0.90;;;0.90;;
50789;SDS011;37287;47.554;7.844;2023-08-06T00:16:08;0.70;;;0.70;;
50789;SDS011;37287;47.554;7.844;2023-08-06T00:18:59;1.10;;;1.00;;
50789;SDS011;37287;47.554;7.844;2023-08-06T00:21:50;1.00;;;1.00;;
50789;SDS011;37287;47.554;7.844;2023-08-06T00:24:41;1.15;;;1.00;;
50789;SDS011;37287;47.554;7.844;2023-08-06T00:27:32;1.77;;;1.10;;
50789;SDS011;37287;47.554;7.844;2023-08-06T00:30:22;1.30;;;1.10;;
50789;SDS011;37287;47.554;7.844;2023-08-06T00:33:13;1.75;;;1.17;;
50789;SDS011;37287;47.554;7.844;2023-08-06T00:35:47;1.20;;;1.10;;
50789;SDS011;37287;47.554;7.844;2023-08-06T00:38:13;1.27;;;1.17;;
50789;SDS011;37287;47.554;7.844;2023-08-06T00:40:40;1.10;;;1.00;;
50789;SDS011;37287;47.554;7.844;2023-08-06T00:43:06;1.80;;;1.02;;
50789;SDS011;37287;47.554;7.844;2023-08-06T00:45:34;2.63;;;1.00;;
50789;SDS011;37287;47.554;7.844;2023-08-06T00:48:26;1.35;;;1.05;;
50789;SDS011;37287;47.554;7.844;2023-08-06T00:51:17;1.10;;;0.90;;
50789;SDS011;37287;47.554;7.844;2023-08-06T00:53:45;1.23;;;0.95;;
50789;SDS011;37287;47.554;7.844;2023-08-06T00:56:37;0.77;;;0.77;;
50789;SDS011;37287;47.554;7.844;2023-08-06T00:59:28;2.40;;;0.80;;
50789;SDS011;37287;47.554;7.844;2023-08-06T01:02:21;1.58;;;1.10;;
50789;SDS011;37287;47.554;7.844;2023-08-06T01:05:36;1.70;;;1.13;;
50789;SDS011;37287;47.554;7.844;2023-08-06T01:08:39;0.80;;;0.80;;
50789;SDS011;37287;47.554;7.844;2023-08-06T01:14:56;1.60;;;0.80;;
50789;SDS011;37287;47.554;7.844;2023-08-06T01:17:54;1.08;;;0.80;;
50789;SDS011;37287;47.554;7.844;2023-08-06T01:20:45;1.95;;;0.90;;
50789;SDS011;37287;47.554;7.844;2023-08-06T01:23:35;0.85;;;0.80;;
50789;SDS011;37287;47.554;7.844;2023-08-06T01:29:30;1.90;;;0.90;;
50789;SDS011;37287;47.554;7.844;2023-08-06T01:32:24;1.00;;;0.90;;
50789;SDS011;37287;47.554;7.844;2023-08-06T01:35:17;1.00;;;0.80;;
50789;SDS011;37287;47.554;7.844;2023-08-06T01:38:09;0.88;;;0.80;;
50789;SDS011;37287;47.554;7.844;2023-08-06T01:41:00;0.90;;;0.90;;
50789;SDS011;37287;47.554;7.844;2023-08-06T01:43:51;1.75;;;1.00;;
50789;SDS011;37287;47.554;7.844;2023-08-06T01:46:42;0.80;;;0.80;;
50789;SDS011;37287;47.554;7.844;2023-08-06T01:49:33;0.80;;;0.80;;
50789;SDS011;37287;47.554;7.844;2023-08-06T01:52:24;1.10;;;0.93;;
50789;SDS011;37287;47.554;7.844;2023-08-06T01:55:15;0.98;;;0.68;;
50789;SDS011;37287;47.554;7.844;2023-08-06T01:58:08;0.93;;;0.60;;
50789;SDS011;37287;47.554;7.844;2023-08-06T02:01:00;1.17;;;0.77;;
50789;SDS011;37287;47.554;7.844;2023-08-06T02:03:52;0.52;;;0.52;;
50789;SDS011;37287;47.554;7.844;2023-08-06T02:06:43;1.10;;;1.00;;
50789;SDS011;37287;47.554;7.844;2023-08-06T02:09:34;1.23;;;0.98;;
50789;SDS011;37287;47.554;7.844;2023-08-06T02:12:25;0.95;;;0.82;;
50789;SDS011;37287;47.554;7.844;2023-08-06T02:14:56;1.95;;;0.80;;
50789;SDS011;37287;47.554;7.844;2023-08-06T02:17:22;3.45;;;0.90;;
50789;SDS011;37287;47.554;7.844;2023-08-06T02:20:16;3.25;;;1.10;;
50789;SDS011;37287;47.554;7.844;2023-08-06T02:22:43;1.08;;;0.75;;
50789;SDS011;37287;47.554;7.844;2023-08-06T02:25:33;1.10;;;0.98;;
50789;SDS011;37287;47.554;7.844;2023-08-06T02:28:23;1.85;;;1.00;;
50789;SDS011;37287;47.554;7.844;2023-08-06T02:31:14;1.33;;;0.90;;
50789;SDS011;37287;47.554;7.844;2023-08-06T02:34:05;2.65;;;1.00;;
50789;SDS011;37287;47.554;7.844;2023-08-06T02:36:59;2.03;;;1.25;;
50789;SDS011;37287;47.554;7.844;2023-08-06T02:39:49;1.95;;;1.17;;
50789;SDS011;37287;47.554;7.844;2023-08-06T02:42:44;5.57;;;1.40;;
50789;SDS011;37287;47.554;7.844;2023-08-06T02:45:34;1.00;;;0.90;;
50789;SDS011;37287;47.554;7.844;2023-08-06T02:48:25;2.95;;;1.30;;
50789;SDS011;37287;47.554;7.844;2023-08-06T02:51:16;2.35;;;1.10;;
50789;SDS011;37287;47.554;7.844;2023-08-06T02:54:07;2.95;;;1.30;;
50789;SDS011;37287;47.554;7.844;2023-08-06T02:56:58;3.40;;;1.23;;
50789;SDS011;37287;47.554;7.844;2023-08-06T02:59:40;2.17;;;1.25;;
50789;SDS011;37287;47.554;7.844;2023-08-06T03:02:30;2.92;;;1.50;;
50789;SDS011;37287;47.554;7.844;2023-08-06T03:05:21;3.58;;;1.38;;
50789;SDS011;37287;47.554;7.844;2023-08-06T03:08:12;3.85;;;1.30;;
50789;SDS011;37287;47.554;7.844;2023-08-06T03:10:43;2.17;;;0.90;;
50789;SDS011;37287;47.554;7.844;2023-08-06T03:13:09;2.08;;;1.17;;
50789;SDS011;37287;47.554;7.844;2023-08-06T03:15:36;5.78;;;1.45;;
50789;SDS011;37287;47.554;7.844;2023-08-06T03:18:26;3.35;;;1.10;;
50789;SDS011;37287;47.554;7.844;2023-08-06T03:21:17;3.33;;;1.10;;
50789;SDS011;37287;47.554;7.844;2023-08-06T03:24:07;3.40;;;1.05;;
50789;SDS011;37287;47.554;7.844;2023-08-06T03:26:58;2.28;;;0.70;;
50789;SDS011;37287;47.554;7.844;2023-08-06T03:29:49;2.88;;;0.88;;
50789;SDS011;37287;47.554;7.844;2023-08-06T03:32:40;3.53;;;0.90;;
50789;SDS011;37287;47.554;7.844;2023-08-06T03:35:31;1.65;;;0.70;;
50789;SDS011;37287;47.554;7.844;2023-08-06T03:38:22;2.53;;;0.90;;
50789;SDS011;37287;47.554;7.844;2023-08-06T03:41:13;1.38;;;0.65;;
50789;SDS011;37287;47.554;7.844;2023-08-06T03:44:04;2.17;;;0.95;;
50789;SDS011;37287;47.554;7.844;2023-08-06T03:46:55;2.60;;;0.80;;
50789;SDS011;37287;47.554;7.844;2023-08-06T03:49:46;2.20;;;0.80;;
50789;SDS011;37287;47.554;7.844;2023-08-06T03:52:40;2.95;;;1.10;;
50789;SDS011;37287;47.554;7.844;2023-08-06T03:55:30;1.88;;;0.93;;
50789;SDS011;37287;47.554;7.844;2023-08-06T03:58:21;2.75;;;1.00;;
50789;SDS011;37287;47.554;7.844;2023-08-06T04:01:11;3.10;;;1.02;;
50789;SDS011;37287;47.554;7.844;2023-08-06T04:04:01;2.17;;;0.82;;
50789;SDS011;37287;47.554;7.844;2023-08-06T04:06:52;3.55;;;0.90;;
50789;SDS011;37287;47.554;7.844;2023-08-06T04:09:23;1.80;;;0.80;;
50789;SDS011;37287;47.554;7.844;2023-08-06T04:11:49;2.67;;;1.08;;
50789;SDS011;37287;47.554;7.844;2023-08-06T04:14:19;2.25;;;0.85;;
50789;SDS011;37287;47.554;7.844;2023-08-06T04:17:10;5.07;;;0.90;;
50789;SDS011;37287;47.554;7.844;2023-08-06T04:20:03;3.65;;;0.93;;
50789;SDS011;37287;47.554;7.844;2023-08-06T04:22:54;2.80;;;1.08;;
50789;SDS011;37287;47.554;7.844;2023-08-06T04:25:25;3.92;;;0.90;;
50789;SDS011;37287;47.554;7.844;2023-08-06T04:27:52;1.77;;;0.80;;
50789;SDS011;37287;47.554;7.844;2023-08-06T04:30:22;1.05;;;0.63;;
50789;SDS011;37287;47.554;7.844;2023-08-06T04:32:49;2.20;;;0.70;;
50789;SDS011;37287;47.554;7.844;2023-08-06T04:35:40;5.10;;;1.13;;
50789;SDS011;37287;47.554;7.844;2023-08-06T04:38:10;1.90;;;0.88;;
50789;SDS011;37287;47.554;7.844;2023-08-06T04:40:38;1.23;;;0.70;;
50789;SDS011;37287;47.554;7.844;2023-08-06T04:43:05;1.45;;;0.80;;
50789;SDS011;37287;47.554;7.844;2023-08-06T04:45:55;2.72;;;0.90;;
50789;SDS011;37287;47.554;7.844;2023-08-06T04:52:28;2.63;;;0.80;;
50789;SDS011;37287;47.554;7.844;2023-08-06T04:55:19;0.95;;;0.57;;
50789;SDS011;37287;47.554;7.844;2023-08-06T04:58:10;2.67;;;1.00;;
50789;SDS011;37287;47.554;7.844;2023-08-06T05:01:00;3.38;;;0.88;;
50789;SDS011;37287;47.554;7.844;2023-08-06T05:03:51;3.17;;;0.70;;
50789;SDS011;37287;47.554;7.844;2023-08-06T05:06:42;3.17;;;0.93;;
50789;SDS011;37287;47.554;7.844;2023-08-06T05:09:32;2.47;;;1.00;;
50789;SDS011;37287;47.554;7.844;2023-08-06T05:12:07;2.55;;;1.00;;
50789;SDS011;37287;47.554;7.844;2023-08-06T05:14:34;1.77;;;0.70;;
50789;SDS011;37287;47.554;7.844;2023-08-06T05:17:24;2.88;;;0.90;;
50789;SDS011;37287;47.554;7.844;2023-08-06T05:20:14;2.22;;;0.88;;
50789;SDS011;37287;47.554;7.844;2023-08-06T05:23:05;1.70;;;0.68;;
50789;SDS011;37287;47.554;7.844;2023-08-06T05:25:59;2.17;;;0.70;;
50789;SDS011;37287;47.554;7.844;2023-08-06T05:28:52;2.50;;;0.93;;
50789;SDS011;37287;47.554;7.844;2023-08-06T05:31:43;3.65;;;0.70;;
50789;SDS011;37287;47.554;7.844;2023-08-06T05:34:34;3.38;;;0.65;;
50789;SDS011;37287;47.554;7.844;2023-08-06T05:37:25;1.95;;;0.85;;
50789;SDS011;37287;47.554;7.844;2023-08-06T05:40:16;2.92;;;1.00;;
50789;SDS011;37287;47.554;7.844;2023-08-06T05:43:07;1.83;;;0.65;;
50789;SDS011;37287;47.554;7.844;2023-08-06T05:45:58;2.35;;;0.82;;
50789;SDS011;37287;47.554;7.844;2023-08-06T05:48:48;1.65;;;0.85;;
50789;SDS011;37287;47.554;7.844;2023-08-06T05:51:41;2.03;;;0.73;;
50789;SDS011;37287;47.554;7.844;2023-08-06T05:54:31;1.58;;;0.60;;
50789;SDS011;37287;47.554;7.844;2023-08-06T05:57:24;0.88;;;0.60;;
50789;SDS011;37287;47.554;7.844;2023-08-06T06:00:14;1.65;;;0.77;;
50789;SDS011;37287;47.554;7.844;2023-08-06T06:02:41;3.05;;;0.90;;
50789;SDS011;37287;47.554;7.844;2023-08-06T06:05:08;1.10;;;0.73;;
50789;SDS011;37287;47.554;7.844;2023-08-06T06:07:34;1.10;;;0.73;;
50789;SDS011;37287;47.554;7.844;2023-08-06T06:10:25;1.85;;;0.60;;
50789;SDS011;37287;47.554;7.844;2023-08-06T06:13:15;0.90;;;0.68;;
50789;SDS011;37287;47.554;7.844;2023-08-06T06:16:07;1.10;;;0.70;;
50789;SDS011;37287;47.554;7.844;2023-08-06T06:18:58;1.38;;;0.60;;
50789;SDS011;37287;47.554;7.844;2023-08-06T06:21:53;2.05;;;0.60;;
50789;SDS011;37287;47.554;7.844;2023-08-06T06:24:43;1.13;;;0.50;;
50789;SDS011;37287;47.554;7.844;2023-08-06T06:27:33;1.23;;;0.55;;
50789;SDS011;37287;47.554;7.844;2023-08-06T06:30:02;0.77;;;0.60;;
50789;SDS011;37287;47.554;7.844;2023-08-06T06:33:17;0.50;;;0.47;;
50789;SDS011;37287;47.554;7.844;2023-08-06T06:35:47;1.52;;;0.52;;
50789;SDS011;37287;47.554;7.844;2023-08-06T06:38:38;0.52;;;0.45;;
50789;SDS011;37287;47.554;7.844;2023-08-06T06:41:29;1.67;;;0.43;;
50789;SDS011;37287;47.554;7.844;2023-08-06T06:44:23;0.38;;;0.30;;
50789;SDS011;37287;47.554;7.844;2023-08-06T06:47:15;1.05;;;0.55;;
50789;SDS011;37287;47.554;7.844;2023-08-06T06:50:06;0.25;;;0.20;;
50789;SDS011;37287;47.554;7.844;2023-08-06T06:52:57;0.73;;;0.15;;
50789;SDS011;37287;47.554;7.844;2023-08-06T06:55:47;0.88;;;0.50;;
50789;SDS011;37287;47.554;7.844;2023-08-06T06:58:39;0.32;;;0.30;;
50789;SDS011;37287;47.554;7.844;2023-08-06T07:01:30;0.25;;;0.20;;
50789;SDS011;37287;47.554;7.844;2023-08-06T07:04:21;0.40;;;0.20;;
50789;SDS011;37287;47.554;7.844;2023-08-06T07:07:12;1.15;;;0.25;;
50789;SDS011;37287;47.554;7.844;2023-08-06T07:09:40;0.20;;;0.20;;
50789;SDS011;37287;47.554;7.844;2023-08-06T07:12:30;0.20;;;0.20;;
50789;SDS011;37287;47.554;7.844;2023-08-06T07:15:21;0.43;;;0.20;;
50789;SDS011;37287;47.554;7.844;2023-08-06T07:18:11;0.17;;;0.15;;
50789;SDS011;37287;47.554;7.844;2023-08-06T07:21:05;0.57;;;0.35;;
50789;SDS011;37287;47.554;7.844;2023-08-06T07:23:56;0.57;;;0.20;;
50789;SDS011;37287;47.554;7.844;2023-08-06T07:26:47;0.47;;;0.10;;
50789;SDS011;37287;47.554;7.844;2023-08-06T07:29:38;0.40;;;0.10;;
50789;SDS011;37287;47.554;7.844;2023-08-06T07:32:33;0.50;;;0.10;;
50789;SDS011;37287;47.554;7.844;2023-08-06T07:35:24;0.38;;;0.10;;
50789;SDS011;37287;47.554;7.844;2023-08-06T07:37:55;0.70;;;0.10;;
50789;SDS011;37287;47.554;7.844;2023-08-06T07:40:45;0.10;;;0.10;;
50789;SDS011;37287;47.554;7.844;2023-08-06T07:43:37;0.28;;;0.10;;
50789;SDS011;37287;47.554;7.844;2023-08-06T07:46:27;0.10;;;0.05;;
50789;SDS011;37287;47.554;7.844;2023-08-06T07:49:21;0.45;;;0.17;;
50789;SDS011;37287;47.554;7.844;2023-08-06T07:52:13;0.00;;;0.00;;
50789;SDS011;37287;47.554;7.844;2023-08-06T07:55:04;0.30;;;0.20;;
50789;SDS011;37287;47.554;7.844;2023-08-06T07:57:55;0.15;;;0.13;;
50789;SDS011;37287;47.554;7.844;2023-08-06T08:00:46;0.20;;;0.13;;
50789;SDS011;37287;47.554;7.844;2023-08-06T08:03:37;0.25;;;0.20;;
50789;SDS011;37287;47.554;7.844;2023-08-06T08:06:28;0.88;;;0.30;;
50789;SDS011;37287;47.554;7.844;2023-08-06T08:09:18;0.32;;;0.10;;
50789;SDS011;37287;47.554;7.844;2023-08-06T08:12:09;0.52;;;0.30;;
50789;SDS011;37287;47.554;7.844;2023-08-06T08:15:00;0.35;;;0.13;;
50789;SDS011;37287;47.554;7.844;2023-08-06T08:17:52;1.00;;;0.32;;
50789;SDS011;37287;47.554;7.844;2023-08-06T08:20:42;0.50;;;0.28;;
50789;SDS011;37287;47.554;7.844;2023-08-06T08:23:35;0.68;;;0.30;;
50789;SDS011;37287;47.554;7.844;2023-08-06T08:26:27;0.68;;;0.30;;
50789;SDS011;37287;47.554;7.844;2023-08-06T08:28:55;0.22;;;0.22;;
50789;SDS011;37287;47.554;7.844;2023-08-06T08:31:22;1.02;;;0.38;;
50789;SDS011;37287;47.554;7.844;2023-08-06T08:34:14;0.52;;;0.30;;
50789;SDS011;37287;47.554;7.844;2023-08-06T08:37:05;0.95;;;0.30;;
50789;SDS011;37287;47.554;7.844;2023-08-06T08:39:56;0.30;;;0.22;;
50789;SDS011;37287;47.554;7.844;2023-08-06T08:42:46;0.88;;;0.40;;
50789;SDS011;37287;47.554;7.844;2023-08-06T08:45:42;0.38;;;0.28;;
50789;SDS011;37287;47.554;7.844;2023-08-06T08:48:33;0.73;;;0.30;;
50789;SDS011;37287;47.554;7.844;2023-08-06T08:51:25;0.40;;;0.32;;
50789;SDS011;37287;47.554;7.844;2023-08-06T08:53:59;2.75;;;0.40;;
50789;SDS011;37287;47.554;7.844;2023-08-06T08:56:32;0.20;;;0.20;;
50789;SDS011;37287;47.554;7.844;2023-08-06T08:59:22;0.75;;;0.30;;
50789;SDS011;37287;47.554;7.844;2023-08-06T09:01:51;0.30;;;0.30;;
50789;SDS011;37287;47.554;7.844;2023-08-06T09:04:20;1.10;;;0.30;;
50789;SDS011;37287;47.554;7.844;2023-08-06T09:07:13;0.65;;;0.25;;
50789;SDS011;37287;47.554;7.844;2023-08-06T09:10:10;0.88;;;0.20;;
50789;SDS011;37287;47.554;7.844;2023-08-06T09:13:03;1.50;;;0.47;;
50789;SDS011;37287;47.554;7.844;2023-08-06T09:15:34;0.10;;;0.10;;
50789;SDS011;37287;47.554;7.844;2023-08-06T09:18:00;0.30;;;0.28;;
50789;SDS011;37287;47.554;7.844;2023-08-06T09:20:59;3.10;;;0.52;;
50789;SDS011;37287;47.554;7.844;2023-08-06T09:23:50;0.38;;;0.30;;
50789;SDS011;37287;47.554;7.844;2023-08-06T09:26:44;0.20;;;0.20;;
50789;SDS011;37287;47.554;7.844;2023-08-06T09:29:35;0.70;;;0.38;;
50789;SDS011;37287;47.554;7.844;2023-08-06T09:32:46;0.40;;;0.17;;
50789;SDS011;37287;47.554;7.844;2023-08-06T09:35:38;0.20;;;0.20;;
50789;SDS011;37287;47.554;7.844;2023-08-06T09:38:30;0.10;;;0.10;;
50789;SDS011;37287;47.554;7.844;2023-08-06T09:41:28;0.73;;;0.25;;
50789;SDS011;37287;47.554;7.844;2023-08-06T09:44:20;0.70;;;0.30;;
50789;SDS011;37287;47.554;7.844;2023-08-06T09:47:13;2.63;;;0.28;;
50789;SDS011;37287;47.554;7.844;2023-08-06T09:50:14;0.20;;;0.20;;
50789;SDS011;37287;47.554;7.844;2023-08-06T09:53:08;0.30;;;0.30;;
50789;SDS011;37287;47.554;7.844;2023-08-06T09:56:00;0.45;;;0.20;;
50789;SDS011;37287;47.554;7.844;2023-08-06T09:58:51;0.30;;;0.30;;
50789;SDS011;37287;47.554;7.844;2023-08-06T10:01:44;0.43;;;0.30;;
50789;SDS011;37287;47.554;7.844;2023-08-06T10:04:35;0.20;;;0.20;;
50789;SDS011;37287;47.554;7.844;2023-08-06T10:07:26;0.50;;;0.30;;
50789;SDS011;37287;47.554;7.844;2023-08-06T10:10:19;2.15;;;0.38;;
50789;SDS011;37287;47.554;7.844;2023-08-06T10:13:09;0.52;;;0.20;;
50789;SDS011;37287;47.554;7.844;2023-08-06T10:15:38;0.82;;;0.40;;
50789;SDS011;37287;47.554;7.844;2023-08-06T10:18:05;0.40;;;0.40;;
50789;SDS011;37287;47.554;7.844;2023-08-06T10:20:56;0.22;;;0.20;;
50789;SDS011;37287;47.554;7.844;2023-08-06T10:23:49;0.75;;;0.40;;
50789;SDS011;37287;47.554;7.844;2023-08-06T10:26:44;0.45;;;0.40;;
50789;SDS011;37287;47.554;7.844;2023-08-06T10:29:36;1.08;;;0.30;;
50789;SDS011;37287;47.554;7.844;2023-08-06T10:35:42;0.85;;;0.32;;
50789;SDS011;37287;47.554;7.844;2023-08-06T10:38:50;0.52;;;0.30;;
50789;SDS011;37287;47.554;7.844;2023-08-06T10:41:42;0.80;;;0.43;;
50789;SDS011;37287;47.554;7.844;2023-08-06T10:44:33;1.65;;;0.35;;
50789;SDS011;37287;47.554;7.844;2023-08-06T10:47:35;0.30;;;0.30;;
50789;SDS011;37287;47.554;7.844;2023-08-06T11:01:31;0.30;;;0.30;;
50789;SDS011;37287;47.554;7.844;2023-08-06T11:04:24;1.13;;;0.47;;
50789;SDS011;37287;47.554;7.844;2023-08-06T11:07:14;0.47;;;0.30;;
50789;SDS011;37287;47.554;7.844;2023-08-06T11:09:50;0.30;;;0.30;;
50789;SDS011;37287;47.554;7.844;2023-08-06T11:12:20;0.85;;;0.40;;
50789;SDS011;37287;47.554;7.844;2023-08-06T11:15:11;0.30;;;0.30;;
50789;SDS011;37287;47.554;7.844;2023-08-06T11:18:02;0.88;;;0.52;;
50789;SDS011;37287;47.554;7.844;2023-08-06T11:21:00;0.93;;;0.43;;
50789;SDS011;37287;47.554;7.844;2023-08-06T11:23:28;0.68;;;0.30;;
50789;SDS011;37287;47.554;7.844;2023-08-06T11:26:21;0.98;;;0.40;;
50789;SDS011;37287;47.554;7.844;2023-08-06T11:29:14;0.50;;;0.50;;
50789;SDS011;37287;47.554;7.844;2023-08-06T11:31:45;1.95;;;0.60;;
50789;SDS011;37287;47.554;7.844;2023-08-06T11:34:36;0.35;;;0.35;;
50789;SDS011;37287;47.554;7.844;2023-08-06T11:37:27;0.73;;;0.60;;
50789;SDS011;37287;47.554;7.844;2023-08-06T11:40:17;0.50;;;0.50;;
50789;SDS011;37287;47.554;7.844;2023-08-06T11:43:08;1.20;;;0.60;;
50789;SDS011;37287;47.554;7.844;2023-08-06T11:45:59;0.50;;;0.50;;
50789;SDS011;37287;47.554;7.844;2023-08-06T11:48:51;0.50;;;0.50;;
50789;SDS011;37287;47.554;7.844;2023-08-06T11:51:48;2.20;;;0.40;;
50789;SDS011;37287;47.554;7.844;2023-08-06T11:54:39;1.00;;;0.68;;
50789;SDS011;37287;47.554;7.844;2023-08-06T11:57:31;1.42;;;0.68;;
50789;SDS011;37287;47.554;7.844;2023-08-06T12:00:28;0.68;;;0.68;;
50789;SDS011;37287;47.554;7.844;2023-08-06T12:03:19;0.95;;;0.60;;
50789;SDS011;37287;47.554;7.844;2023-08-06T12:06:13;0.80;;;0.80;;
50789;SDS011;37287;47.554;7.844;2023-08-06T12:09:04;0.70;;;0.70;;
50789;SDS011;37287;47.554;7.844;2023-08-06T12:11:57;0.95;;;0.85;;
50789;SDS011;37287;47.554;7.844;2023-08-06T12:14:47;1.00;;;1.00;;
50789;SDS011;37287;47.554;7.844;2023-08-06T12:17:38;1.35;;;1.00;;
50789;SDS011;37287;47.554;7.844;2023-08-06T12:20:30;0.98;;;0.98;;
50789;SDS011;37287;47.554;7.844;2023-08-06T12:23:22;2.28;;;0.75;;
50789;SDS011;37287;47.554;7.844;2023-08-06T12:26:12;1.05;;;0.90;;
50789;SDS011;37287;47.554;7.844;2023-08-06T12:29:04;2.20;;;1.10;;
50789;SDS011;37287;47.554;7.844;2023-08-06T12:31:54;0.85;;;0.85;;
50789;SDS011;37287;47.554;7.844;2023-08-06T12:35:10;0.88;;;0.70;;
50789;SDS011;37287;47.554;7.844;2023-08-06T12:38:26;0.82;;;0.82;;
50789;SDS011;37287;47.554;7.844;2023-08-06T12:41:41;1.02;;;0.90;;
50789;SDS011;37287;47.554;7.844;2023-08-06T12:44:58;2.35;;;1.02;;
50789;SDS011;37287;47.554;7.844;2023-08-06T12:47:48;1.55;;;0.93;;
50789;SDS011;37287;47.554;7.844;2023-08-06T12:50:39;2.05;;;0.90;;
50789;SDS011;37287;47.554;7.844;2023-08-06T12:53:30;1.35;;;0.90;;
50789;SDS011;37287;47.554;7.844;2023-08-06T12:56:21;0.80;;;0.80;;
50789;SDS011;37287;47.554;7.844;2023-08-06T12:59:16;0.93;;;0.88;;
50789;SDS011;37287;47.554;7.844;2023-08-06T13:02:08;2.88;;;1.38;;
50789;SDS011;37287;47.554;7.844;2023-08-06T13:05:00;1.92;;;1.05;;
50789;SDS011;37287;47.554;7.844;2023-08-06T13:07:55;1.38;;;0.75;;
50789;SDS011;37287;47.554;7.844;2023-08-06T13:10:47;1.13;;;0.90;;
50789;SDS011;37287;47.554;7.844;2023-08-06T13:13:38;4.72;;;1.58;;
50789;SDS011;37287;47.554;7.844;2023-08-06T13:16:32;3.42;;;1.10;;
50789;SDS011;37287;47.554;7.844;2023-08-06T13:19:03;3.42;;;1.27;;
50789;SDS011;37287;47.554;7.844;2023-08-06T13:21:59;3.13;;;1.40;;
50789;SDS011;37287;47.554;7.844;2023-08-06T13:24:56;1.70;;;1.00;;
50789;SDS011;37287;47.554;7.844;2023-08-06T13:27:47;2.05;;;1.20;;
50789;SDS011;37287;47.554;7.844;2023-08-06T13:30:39;2.13;;;1.10;;
50789;SDS011;37287;47.554;7.844;2023-08-06T13:33:31;3.13;;;1.35;;
50789;SDS011;37287;47.554;7.844;2023-08-06T13:36:22;1.77;;;1.40;;
50789;SDS011;37287;47.554;7.844;2023-08-06T13:39:16;2.35;;;1.35;;
50789;SDS011;37287;47.554;7.844;2023-08-06T13:42:07;1.95;;;1.40;;
50789;SDS011;37287;47.554;7.844;2023-08-06T13:44:34;2.42;;;1.23;;
50789;SDS011;37287;47.554;7.844;2023-08-06T13:47:26;1.48;;;1.20;;
50789;SDS011;37287;47.554;7.844;2023-08-06T13:50:16;2.20;;;1.40;;
50789;SDS011;37287;47.554;7.844;2023-08-06T13:53:08;2.78;;;1.60;;
50789;SDS011;37287;47.554;7.844;2023-08-06T13:56:01;3.05;;;1.17;;
50789;SDS011;37287;47.554;7.844;2023-08-06T13:58:52;1.60;;;1.15;;
50789;SDS011;37287;47.554;7.844;2023-08-06T14:01:42;2.22;;;1.23;;
50789;SDS011;37287;47.554;7.844;2023-08-06T14:04:33;1.05;;;1.05;;
50789;SDS011;37287;47.554;7.844;2023-08-06T14:07:00;1.30;;;1.05;;
50789;SDS011;37287;47.554;7.844;2023-08-06T14:09:50;1.33;;;1.15;;
50789;SDS011;37287;47.554;7.844;2023-08-06T14:12:42;0.95;;;0.90;;
50789;SDS011;37287;47.554;7.844;2023-08-06T14:15:32;1.00;;;0.90;;
50789;SDS011;37287;47.554;7.844;2023-08-06T14:18:01;0.88;;;0.88;;
50789;SDS011;37287;47.554;7.844;2023-08-06T14:20:53;2.00;;;1.00;;
50789;SDS011;37287;47.554;7.844;2023-08-06T14:23:45;1.30;;;1.00;;
50789;SDS011;37287;47.554;7.844;2023-08-06T14:26:36;1.73;;;0.90;;
50789;SDS011;37287;47.554;7.844;2023-08-06T14:29:13;1.70;;;1.20;;
50789;SDS011;37287;47.554;7.844;2023-08-06T14:31:40;1.42;;;0.90;;
50789;SDS011;37287;47.554;7.844;2023-08-06T14:34:31;1.98;;;1.10;;
50789;SDS011;37287;47.554;7.844;2023-08-06T14:37:22;0.90;;;0.90;;
50789;SDS011;37287;47.554;7.844;2023-08-06T14:39:48;1.52;;;0.90;;
50789;SDS011;37287;47.554;7.844;2023-08-06T14:42:38;3.38;;;1.00;;
50789;SDS011;37287;47.554;7.844;2023-08-06T14:45:30;1.02;;;0.90;;
50789;SDS011;37287;47.554;7.844;2023-08-06T14:48:20;1.20;;;1.05;;
50789;SDS011;37287;47.554;7.844;2023-08-06T14:51:12;1.35;;;1.08;;
50789;SDS011;37287;47.554;7.844;2023-08-06T14:54:04;1.25;;;1.10;;
50789;SDS011;37287;47.554;7.844;2023-08-06T14:56:55;1.48;;;1.00;;
50789;SDS011;37287;47.554;7.844;2023-08-06T14:59:45;1.13;;;0.98;;
50789;SDS011;37287;47.554;7.844;2023-08-06T15:02:36;1.20;;;1.10;;
50789;SDS011;37287;47.554;7.844;2023-08-06T15:05:26;1.10;;;1.00;;
50789;SDS011;37287;47.554;7.844;2023-08-06T15:08:18;0.90;;;0.90;;
50789;SDS011;37287;47.554;7.844;2023-08-06T15:11:08;1.58;;;1.20;;
50789;SDS011;37287;47.554;7.844;2023-08-06T15:14:03;1.23;;;1.05;;
50789;SDS011;37287;47.554;7.844;2023-08-06T15:16:55;1.25;;;1.05;;
50789;SDS011;37287;47.554;7.844;2023-08-06T15:19:47;1.25;;;1.10;;
50789;SDS011;37287;47.554;7.844;2023-08-06T15:22:37;1.90;;;1.40;;
50789;SDS011;37287;47.554;7.844;2023-08-06T15:25:29;2.45;;;1.30;;
50789;SDS011;37287;47.554;7.844;2023-08-06T15:28:20;1.52;;;1.25;;
50789;SDS011;37287;47.554;7.844;2023-08-06T15:31:12;2.88;;;1.38;;
50789;SDS011;37287;47.554;7.844;2023-08-06T15:34:07;1.85;;;1.30;;
50789;SDS011;37287;47.554;7.844;2023-08-06T15:37:02;3.22;;;1.67;;
50789;SDS011;37287;47.554;7.844;2023-08-06T15:39:53;1.77;;;0.93;;
50789;SDS011;37287;47.554;7.844;2023-08-06T15:42:48;2.67;;;1.30;;
50789;SDS011;37287;47.554;7.844;2023-08-06T15:45:40;1.45;;;1.20;;
50789;SDS011;37287;47.554;7.844;2023-08-06T15:48:06;1.58;;;1.23;;
50789;SDS011;37287;47.554;7.844;2023-08-06T15:50:38;1.13;;;0.90;;
50789;SDS011;37287;47.554;7.844;2023-08-06T15:53:29;1.95;;;1.30;;
50789;SDS011;37287;47.554;7.844;2023-08-06T15:56:21;1.48;;;1.38;;
50789;SDS011;37287;47.554;7.844;2023-08-06T15:59:29;2.17;;;1.50;;
50789;SDS011;37287;47.554;7.844;2023-08-06T16:02:20;1.42;;;1.25;;
50789;SDS011;37287;47.554;7.844;2023-08-06T16:05:10;3.78;;;1.63;;
50789;SDS011;37287;47.554;7.844;2023-08-06T16:08:01;1.40;;;1.20;;
50789;SDS011;37287;47.554;7.844;2023-08-06T16:10:51;4.15;;;1.50;;
50789;SDS011;37287;47.554;7.844;2023-08-06T16:13:42;1.48;;;1.38;;
50789;SDS011;37287;47.554;7.844;2023-08-06T16:16:32;3.95;;;1.38;;
50789;SDS011;37287;47.554;7.844;2023-08-06T16:19:26;1.40;;;1.30;;
50789;SDS011;37287;47.554;7.844;2023-08-06T16:22:17;1.83;;;1.23;;
50789;SDS011;37287;47.554;7.844;2023-08-06T16:25:08;2.03;;;1.42;;
50789;SDS011;37287;47.554;7.844;2023-08-06T16:28:01;1.85;;;1.17;;
50789;SDS011;37287;47.554;7.844;2023-08-06T16:30:52;3.78;;;1.40;;
50789;SDS011;37287;47.554;7.844;2023-08-06T16:33:45;1.75;;;1.40;;
50789;SDS011;37287;47.554;7.844;2023-08-06T16:36:36;3.22;;;1.25;;
50789;SDS011;37287;47.554;7.844;2023-08-06T16:39:28;1.30;;;1.20;;
50789;SDS011;37287;47.554;7.844;2023-08-06T16:42:19;3.88;;;1.33;;
50789;SDS011;37287;47.554;7.844;2023-08-06T16:45:09;1.85;;;1.35;;
50789;SDS011;37287;47.554;7.844;2023-08-06T16:48:01;1.10;;;1.00;;
50789;SDS011;37287;47.554;7.844;2023-08-06T16:50:52;2.40;;;1.30;;
50789;SDS011;37287;47.554;7.844;2023-08-06T16:53:44;1.23;;;1.13;;
50789;SDS011;37287;47.554;7.844;2023-08-06T16:56:36;1.98;;;1.40;;
50789;SDS011;37287;47.554;7.844;2023-08-06T16:59:28;1.25;;;1.08;;
50789;SDS011;37287;47.554;7.844;2023-08-06T17:02:19;1.20;;;1.10;;
50789;SDS011;37287;47.554;7.844;2023-08-06T17:05:10;1.15;;;1.05;;
50789;SDS011;37287;47.554;7.844;2023-08-06T17:08:00;1.42;;;1.25;;
50789;SDS011;37287;47.554;7.844;2023-08-06T17:10:55;1.55;;;1.08;;
50789;SDS011;37287;47.554;7.844;2023-08-06T17:13:47;1.20;;;1.10;;
50789;SDS011;37287;47.554;7.844;2023-08-06T17:16:37;2.50;;;1.25;;
50789;SDS011;37287;47.554;7.844;2023-08-06T17:19:28;1.70;;;0.95;;
50789;SDS011;37287;47.554;7.844;2023-08-06T17:22:21;1.30;;;1.20;;